Time;durP1;ratioP1;P1;durP2;ratioP2;P2;SDS_P1;SDS_P2;PMS_P1;PMS_P2;Temp;Humidity;BMP_temperature;BMP_pressure;BME280_temperature;BME280_humidity;BME280_pressure;Samples;Min_cycle;Max_cycle;Signal;HPM_P1;HPM_P2
2021/10/18 00:01:21;;;;;;;;;;;9.00;1.00;;;;;;5028491;28;19924;-75
2021/10/18 00:03:47;;;;;;;;;;;9.00;1.00;;;;;;5028634;28;19913;-75
2021/10/18 00:06:12;;;;;;;;;;;9.00;1.00;;;;;;5029145;28;19909;-74
2021/10/18 00:08:38;;;;;;;;;;;9.00;1.00;;;;;;5028965;28;20278;-75
2021/10/18 00:11:04;;;;;;;;;;;9.00;1.00;;;;;;5029228;28;19913;-75
2021/10/18 00:13:30;;;;;;;;;;;8.90;1.00;;;;;;5027211;28;19916;-75
2021/10/18 00:15:56;;;;;;;;;;;8.90;1.00;;;;;;5028817;28;19913;-75
2021/10/18 00:18:21;;;;;;;;;;;8.90;1.00;;;;;;5028896;28;19909;-74
2021/10/18 00:20:47;;;;;;;;;;;8.90;1.00;;;;;;5029925;28;20046;-75
2021/10/18 00:23:12;;;;;;;;;;;8.90;1.00;;;;;;5031718;28;20012;-75
2021/10/18 00:25:38;;;;;;;;;;;8.90;1.00;;;;;;5032664;28;19909;-75
2021/10/18 00:28:03;;;;;;;;;;;8.90;1.00;;;;;;5019124;28;19912;-74
2021/10/18 00:30:29;;;;;;;;;;;8.80;1.00;;;;;;5039984;28;19909;-75
2021/10/18 00:32:54;;;;;;;;;;;8.80;1.00;;;;;;5049543;28;20397;-75
2021/10/18 00:35:20;;;;;;;;;;;8.80;1.00;;;;;;5052468;28;20357;-75
2021/10/18 00:37:45;;;;;;;;;;;8.80;1.00;;;;;;5042839;28;19917;-74
2021/10/18 00:40:12;;;;;;;;;;;8.80;1.00;;;;;;5033841;28;19940;-75
2021/10/18 00:42:37;;;;;;;;;;;8.80;1.00;;;;;;5032730;28;19957;-74
2021/10/18 00:45:03;;;;;;;;;;;8.80;1.00;;;;;;5015843;28;20400;-74
2021/10/18 00:47:29;;;;;;;;;;;8.80;1.00;;;;;;5033629;28;19913;-74
2021/10/18 00:49:54;;;;;;;;;;;8.80;1.00;;;;;;5034119;28;19951;-75
2021/10/18 00:52:20;;;;;;;;;;;8.90;1.00;;;;;;5033096;28;19932;-75
2021/10/18 00:54:46;;;;;;;;;;;8.90;1.00;;;;;;5033380;28;19935;-75
2021/10/18 00:57:13;;;;;;;;;;;8.90;1.00;;;;;;5032972;28;19917;-75
2021/10/18 00:59:39;;;;;;;;;;;8.90;1.00;;;;;;5030405;28;19916;-75
2021/10/18 01:02:05;;;;;;;;;;;8.90;1.00;;;;;;5028027;28;19920;-75
2021/10/18 01:04:30;;;;;;;;;;;8.90;1.00;;;;;;5031820;28;19916;-75
2021/10/18 01:06:57;;;;;;;;;;;8.90;1.00;;;;;;5031961;28;20359;-75
2021/10/18 01:09:22;;;;;;;;;;;8.90;1.00;;;;;;5031647;28;19910;-75
2021/10/18 01:11:48;;;;;;;;;;;8.80;1.00;;;;;;5030959;28;20008;-75
2021/10/18 01:14:14;;;;;;;;;;;8.80;1.00;;;;;;5029981;28;19971;-75
2021/10/18 01:16:39;;;;;;;;;;;8.80;1.00;;;;;;5031751;28;20368;-75
2021/10/18 01:19:11;;;;;;;;;;;8.80;1.00;;;;;;5013392;28;19913;-75
2021/10/18 01:21:40;;;;;;;;;;;8.80;1.00;;;;;;5031442;28;19913;-75
2021/10/18 01:24:06;;;;;;;;;;;8.80;1.00;;;;;;5030259;28;19910;-74
2021/10/18 01:26:32;;;;;;;;;;;8.80;1.00;;;;;;5031702;28;19916;-76
2021/10/18 01:28:57;;;;;;;;;;;8.80;1.00;;;;;;5035304;28;20397;-75
2021/10/18 01:31:23;;;;;;;;;;;8.70;1.00;;;;;;5030900;28;19913;-75
2021/10/18 01:33:48;;;;;;;;;;;8.70;1.00;;;;;;5029075;28;19909;-75
2021/10/18 01:36:14;;;;;;;;;;;8.80;1.00;;;;;;5031693;28;19909;-75
2021/10/18 01:38:39;;;;;;;;;;;8.70;1.00;;;;;;5048615;28;19955;-75
2021/10/18 01:41:05;;;;;;;;;;;8.70;1.00;;;;;;5051254;28;19913;-75
2021/10/18 01:43:30;;;;;;;;;;;8.70;1.00;;;;;;5044692;28;19967;-75
2021/10/18 01:45:56;;;;;;;;;;;8.70;1.00;;;;;;5030585;28;19917;-76
2021/10/18 01:48:21;;;;;;;;;;;8.70;1.00;;;;;;5013112;28;20344;-75
2021/10/18 01:50:47;;;;;;;;;;;8.70;1.00;;;;;;5031107;28;20012;-75
2021/10/18 01:53:12;;;;;;;;;;;8.60;1.00;;;;;;5030388;28;19913;-75
2021/10/18 01:55:38;;;;;;;;;;;8.60;1.00;;;;;;5030865;28;19909;-76
2021/10/18 01:58:04;;;;;;;;;;;8.50;1.00;;;;;;5029863;28;19958;-74
2021/10/18 02:00:29;;;;;;;;;;;8.50;1.00;;;;;;5030017;28;19997;-75
2021/10/18 02:02:55;;;;;;;;;;;8.50;1.00;;;;;;5029833;28;20094;-74
2021/10/18 02:05:20;;;;;;;;;;;8.40;1.00;;;;;;5028386;28;20428;-75
2021/10/18 02:07:46;;;;;;;;;;;8.50;1.00;;;;;;5042082;28;20016;-74
2021/10/18 02:10:12;;;;;;;;;;;8.50;1.00;;;;;;5050815;28;20369;-75
2021/10/18 02:12:37;;;;;;;;;;;8.40;1.00;;;;;;5049235;28;19912;-75
2021/10/18 02:15:03;;;;;;;;;;;8.40;1.00;;;;;;5049622;28;19909;-74
2021/10/18 02:17:29;;;;;;;;;;;8.40;1.00;;;;;;5050468;28;20489;-74
2021/10/18 02:19:54;;;;;;;;;;;8.40;1.00;;;;;;5050134;28;19920;-74
2021/10/18 02:22:20;;;;;;;;;;;8.30;1.00;;;;;;5049545;28;19913;-75
2021/10/18 02:24:45;;;;;;;;;;;8.40;1.00;;;;;;5039575;28;20354;-75
2021/10/18 02:27:11;;;;;;;;;;;8.30;1.00;;;;;;5030041;28;19924;-75
2021/10/18 02:29:36;;;;;;;;;;;8.40;1.00;;;;;;5034318;28;19913;-75
2021/10/18 02:32:02;;;;;;;;;;;8.30;1.00;;;;;;5028972;28;20282;-75
2021/10/18 02:34:27;;;;;;;;;;;8.30;1.00;;;;;;5030281;28;19915;-75
2021/10/18 02:36:53;;;;;;;;;;;8.30;1.00;;;;;;5033486;28;20006;-74
2021/10/18 02:39:19;;;;;;;;;;;8.30;1.00;;;;;;5050058;28;20026;-75
2021/10/18 02:41:44;;;;;;;;;;;8.30;1.00;;;;;;5049721;28;19932;-74
2021/10/18 02:44:10;;;;;;;;;;;8.30;1.00;;;;;;5037605;28;19909;-75
2021/10/18 02:46:35;;;;;;;;;;;8.30;1.00;;;;;;5030153;28;19917;-75
2021/10/18 02:49:01;;;;;;;;;;;8.30;1.00;;;;;;5029742;28;20625;-75
2021/10/18 02:51:26;;;;;;;;;;;8.30;1.00;;;;;;5030301;28;19952;-75
2021/10/18 02:53:52;;;;;;;;;;;8.30;1.00;;;;;;5028948;28;19913;-75
2021/10/18 02:56:17;;;;;;;;;;;8.30;1.00;;;;;;5029633;28;19909;-75
2021/10/18 02:58:43;;;;;;;;;;;8.20;1.00;;;;;;5028462;28;19914;-75
2021/10/18 03:01:09;;;;;;;;;;;8.20;1.00;;;;;;5028793;28;19909;-75
2021/10/18 03:03:34;;;;;;;;;;;8.30;1.00;;;;;;5028885;28;20621;-75
2021/10/18 03:05:59;;;;;;;;;;;8.20;1.00;;;;;;5029787;28;19949;-75
2021/10/18 03:08:25;;;;;;;;;;;8.20;1.00;;;;;;5029901;28;20000;-75
2021/10/18 03:10:50;;;;;;;;;;;8.20;1.00;;;;;;5030153;28;19909;-75
2021/10/18 03:13:16;;;;;;;;;;;8.20;1.00;;;;;;5028649;28;19969;-74
2021/10/18 03:15:43;;;;;;;;;;;8.20;1.00;;;;;;5029211;28;20003;-75
2021/10/18 03:18:08;;;;;;;;;;;8.20;1.00;;;;;;5029743;28;19909;-75
2021/10/18 03:20:34;;;;;;;;;;;8.30;1.00;;;;;;5029588;28;20349;-73
2021/10/18 03:22:59;;;;;;;;;;;8.30;1.00;;;;;;5029097;28;20385;-73
2021/10/18 03:25:25;;;;;;;;;;;8.30;1.00;;;;;;5029365;28;19958;-75
2021/10/18 03:27:50;;;;;;;;;;;8.30;1.00;;;;;;5032736;28;19917;-75
2021/10/18 03:30:16;;;;;;;;;;;8.30;1.00;;;;;;5037412;28;19909;-73
2021/10/18 03:32:41;;;;;;;;;;;8.20;1.00;;;;;;5043706;28;20369;-75
2021/10/18 03:35:07;;;;;;;;;;;8.20;1.00;;;;;;5049172;28;19923;-74
2021/10/18 03:37:32;;;;;;;;;;;8.20;1.00;;;;;;5040904;28;19916;-74
2021/10/18 03:39:58;;;;;;;;;;;8.20;1.00;;;;;;5028922;28;20059;-75
2021/10/18 03:42:23;;;;;;;;;;;8.10;1.00;;;;;;5027967;28;19913;-74
2021/10/18 03:44:49;;;;;;;;;;;7.80;1.00;;;;;;5027950;28;19913;-75
2021/10/18 03:47:14;;;;;;;;;;;7.80;1.00;;;;;;5029146;28;19921;-75
2021/10/18 03:49:40;;;;;;;;;;;7.70;1.00;;;;;;5028871;28;20338;-74
2021/10/18 03:52:06;;;;;;;;;;;7.70;1.00;;;;;;5010642;28;19960;-74
2021/10/18 03:54:31;;;;;;;;;;;7.70;1.00;;;;;;5028723;28;19948;-75
2021/10/18 03:56:57;;;;;;;;;;;7.80;1.00;;;;;;5031997;28;19917;-75
2021/10/18 03:59:22;;;;;;;;;;;7.90;1.00;;;;;;5031303;28;20424;-74
2021/10/18 04:01:48;;;;;;;;;;;7.90;1.00;;;;;;5032333;28;19963;-75
2021/10/18 04:04:14;;;;;;;;;;;7.90;1.00;;;;;;5032503;28;19996;-74
2021/10/18 04:06:39;;;;;;;;;;;7.90;1.00;;;;;;5032851;28;19967;-75
2021/10/18 04:09:06;;;;;;;;;;;8.00;1.00;;;;;;5032537;28;19917;-74
2021/10/18 04:11:38;;;;;;;;;;;8.00;1.00;;;;;;5033262;28;19909;-74
2021/10/18 04:14:04;;;;;;;;;;;8.00;1.00;;;;;;5030911;28;20043;-74
2021/10/18 04:16:29;;;;;;;;;;;8.00;1.00;;;;;;5033350;28;19921;-73
2021/10/18 04:18:55;;;;;;;;;;;8.10;1.00;;;;;;5032443;28;19917;-74
2021/10/18 04:21:20;;;;;;;;;;;8.10;1.00;;;;;;5032850;28;20357;-75
2021/10/18 04:23:46;;;;;;;;;;;8.20;1.00;;;;;;5031962;28;19913;-75
2021/10/18 04:26:11;;;;;;;;;;;8.10;1.00;;;;;;5014810;28;20207;-74
2021/10/18 04:28:37;;;;;;;;;;;8.10;1.00;;;;;;5036067;28;19961;-74
2021/10/18 04:31:02;;;;;;;;;;;8.10;1.00;;;;;;5031713;28;20263;-76
2021/10/18 04:33:28;;;;;;;;;;;8.00;1.00;;;;;;5031375;28;19905;-75
2021/10/18 04:35:53;;;;;;;;;;;8.00;1.00;;;;;;5032583;28;20358;-74
2021/10/18 04:38:19;;;;;;;;;;;8.00;1.00;;;;;;5046995;28;19952;-75
2021/10/18 04:40:44;;;;;;;;;;;8.00;1.00;;;;;;5052247;28;19920;-73
2021/10/18 04:43:10;;;;;;;;;;;8.10;1.00;;;;;;5048673;28;19927;-74
2021/10/18 04:45:35;;;;;;;;;;;8.10;1.00;;;;;;5031047;28;19967;-74
2021/10/18 04:48:01;;;;;;;;;;;8.10;1.00;;;;;;5032150;28;19913;-75
2021/10/18 04:50:26;;;;;;;;;;;8.10;1.00;;;;;;5032110;28;19960;-74
2021/10/18 04:52:52;;;;;;;;;;;8.10;1.00;;;;;;5029093;28;19958;-75
2021/10/18 04:55:17;;;;;;;;;;;8.00;1.00;;;;;;5031874;28;19909;-74
2021/10/18 04:57:53;;;;;;;;;;;8.00;1.00;;;;;;5031272;28;19909;-75
2021/10/18 05:00:19;;;;;;;;;;;7.80;1.00;;;;;;5031135;28;20620;-74
2021/10/18 05:02:45;;;;;;;;;;;7.80;1.00;;;;;;5031090;28;19921;-74
2021/10/18 05:05:11;;;;;;;;;;;7.70;1.00;;;;;;5039166;28;19917;-74
2021/10/18 05:07:36;;;;;;;;;;;7.70;1.00;;;;;;5037651;28;20004;-75
2021/10/18 05:10:02;;;;;;;;;;;7.70;1.00;;;;;;5040174;28;19917;-77
2021/10/18 05:12:27;;;;;;;;;;;7.60;1.00;;;;;;5035796;28;20386;-76
2021/10/18 05:14:53;;;;;;;;;;;7.50;1.00;;;;;;5035013;28;20038;-76
2021/10/18 05:17:18;;;;;;;;;;;7.50;1.00;;;;;;5036784;28;19919;-75
2021/10/18 05:19:44;;;;;;;;;;;7.60;1.00;;;;;;5046380;28;20256;-76
2021/10/18 05:22:09;;;;;;;;;;;7.60;1.00;;;;;;5037296;28;20034;-75
2021/10/18 05:24:35;;;;;;;;;;;7.60;1.00;;;;;;5036671;28;19925;-73
2021/10/18 05:27:00;;;;;;;;;;;7.70;1.00;;;;;;5039241;28;19913;-75
2021/10/18 05:29:26;;;;;;;;;;;7.80;1.00;;;;;;5038232;28;19924;-76
2021/10/18 05:31:52;;;;;;;;;;;7.80;1.00;;;;;;5040839;28;19920;-75
2021/10/18 05:34:17;;;;;;;;;;;7.50;1.00;;;;;;5036150;28;20360;-77
2021/10/18 05:36:43;;;;;;;;;;;7.40;1.00;;;;;;5035377;28;19913;-75
2021/10/18 05:39:08;;;;;;;;;;;7.40;1.00;;;;;;5042452;28;20130;-75
2021/10/18 05:41:34;;;;;;;;;;;7.40;1.00;;;;;;5039671;28;19912;-75
2021/10/18 05:43:59;;;;;;;;;;;7.40;1.00;;;;;;5038268;28;19914;-75
2021/10/18 05:46:25;;;;;;;;;;;7.40;1.00;;;;;;5033339;28;19917;-74
2021/10/18 05:48:50;;;;;;;;;;;7.50;1.00;;;;;;5020184;28;20015;-75
2021/10/18 05:51:16;;;;;;;;;;;7.60;1.00;;;;;;5045174;28;19913;-75
2021/10/18 05:53:41;;;;;;;;;;;7.70;1.00;;;;;;5036792;28;19909;-74
2021/10/18 05:56:07;;;;;;;;;;;7.70;1.00;;;;;;5024128;28;19921;-74
2021/10/18 05:58:32;;;;;;;;;;;7.70;1.00;;;;;;5037071;28;19920;-73
2021/10/18 06:00:58;;;;;;;;;;;7.70;1.00;;;;;;5033870;28;19913;-74
2021/10/18 06:03:23;;;;;;;;;;;7.60;1.00;;;;;;5033316;22;19932;-73
2021/10/18 06:05:52;;;;;;;;;;;7.50;1.00;;;;;;5024616;28;20411;-70
2021/10/18 06:08:17;;;;;;;;;;;7.30;1.00;;;;;;5025440;28;19988;-69
2021/10/18 06:10:43;;;;;;;;;;;7.30;1.00;;;;;;5019171;28;20465;-70
2021/10/18 06:13:09;;;;;;;;;;;7.20;1.00;;;;;;5018878;28;20000;-69
2021/10/18 06:15:35;;;;;;;;;;;7.20;1.00;;;;;;5003037;28;19985;-69
2021/10/18 06:18:11;;;;;;;;;;;7.40;1.00;;;;;;5019127;28;19909;-69
2021/10/18 06:20:38;;;;;;;;;;;7.50;1.00;;;;;;5018303;28;20378;-70
2021/10/18 06:23:04;;;;;;;;;;;7.50;1.00;;;;;;5017167;28;19972;-69
2021/10/18 06:25:30;;;;;;;;;;;7.60;1.00;;;;;;5021514;28;20337;-67
2021/10/18 06:27:55;;;;;;;;;;;7.60;1.00;;;;;;5003354;28;20377;-67
2021/10/18 06:30:21;;;;;;;;;;;7.50;1.00;;;;;;5028150;28;19917;-68
2021/10/18 06:32:46;;;;;;;;;;;7.40;1.00;;;;;;5019518;28;20043;-68
2021/10/18 06:35:12;;;;;;;;;;;7.40;1.00;;;;;;5016815;28;19913;-67
2021/10/18 06:37:38;;;;;;;;;;;7.30;1.00;;;;;;5018943;28;19910;-68
2021/10/18 06:40:03;;;;;;;;;;;7.40;1.00;;;;;;5018983;28;20004;-68
2021/10/18 06:42:29;;;;;;;;;;;7.40;1.00;;;;;;5013697;28;19940;-69
2021/10/18 06:44:54;;;;;;;;;;;7.30;1.00;;;;;;5015455;28;19917;-69
2021/10/18 06:47:20;;;;;;;;;;;7.40;1.00;;;;;;5017022;28;19969;-68
2021/10/18 06:49:45;;;;;;;;;;;7.50;1.00;;;;;;5026557;28;19915;-67
2021/10/18 06:52:11;;;;;;;;;;;7.60;1.00;;;;;;5014338;28;19917;-69
2021/10/18 06:54:41;;;;;;;;;;;7.60;1.00;;;;;;5011580;28;19909;-68
2021/10/18 06:57:06;;;;;;;;;;;7.70;1.00;;;;;;5021913;28;19921;-71
2021/10/18 06:59:32;;;;;;;;;;;7.70;1.00;;;;;;4998355;28;19916;-68
2021/10/18 07:01:58;;;;;;;;;;;7.70;1.00;;;;;;5025405;28;20381;-68
2021/10/18 07:04:24;;;;;;;;;;;7.70;1.00;;;;;;5017377;28;19929;-68
2021/10/18 07:06:49;;;;;;;;;;;7.70;1.00;;;;;;5018634;28;19914;-69
2021/10/18 07:09:15;;;;;;;;;;;7.70;1.00;;;;;;5021101;28;20220;-68
2021/10/18 07:11:40;;;;;;;;;;;7.60;1.00;;;;;;5018927;28;19917;-68
2021/10/18 07:14:06;;;;;;;;;;;7.70;1.00;;;;;;5010367;28;19928;-68
2021/10/18 07:16:31;;;;;;;;;;;7.60;1.00;;;;;;5028718;28;19920;-69
2021/10/18 07:18:57;;;;;;;;;;;7.70;1.00;;;;;;5014751;28;19914;-68
2021/10/18 07:21:23;;;;;;;;;;;7.60;1.00;;;;;;5001271;28;19913;-68
2021/10/18 07:23:51;;;;;;;;;;;7.50;1.00;;;;;;5018756;28;20154;-68
2021/10/18 07:26:18;;;;;;;;;;;7.40;1.00;;;;;;5015380;28;19921;-68
2021/10/18 07:28:43;;;;;;;;;;;7.50;1.00;;;;;;5020962;28;19940;-68
2021/10/18 07:31:09;;;;;;;;;;;7.50;1.00;;;;;;5009708;28;20015;-67
2021/10/18 07:33:35;;;;;;;;;;;7.60;1.00;;;;;;5009093;28;19914;-68
2021/10/18 07:36:08;;;;;;;;;;;7.70;1.00;;;;;;5017296;28;19913;-68
2021/10/18 07:38:37;;;;;;;;;;;7.80;1.00;;;;;;5032127;28;19921;-67
2021/10/18 07:41:03;;;;;;;;;;;7.90;1.00;;;;;;5015791;28;20275;-67
2021/10/18 07:43:29;;;;;;;;;;;8.00;1.00;;;;;;5018936;28;20012;-70
2021/10/18 07:45:54;;;;;;;;;;;8.10;1.00;;;;;;5024814;28;19913;-68
2021/10/18 07:48:20;;;;;;;;;;;8.20;1.00;;;;;;5021242;28;20396;-68
2021/10/18 07:50:46;;;;;;;;;;;8.10;1.00;;;;;;5018057;28;19921;-68
2021/10/18 07:53:11;;;;;;;;;;;8.10;1.00;;;;;;5016012;28;19925;-68
2021/10/18 07:55:37;;;;;;;;;;;8.10;1.00;;;;;;5009484;28;19920;-70
2021/10/18 07:58:03;;;;;;;;;;;8.10;1.00;;;;;;5021323;28;19913;-70
2021/10/18 08:00:28;;;;;;;;;;;8.20;1.00;;;;;;5014705;28;19917;-68
2021/10/18 08:02:54;;;;;;;;;;;8.10;1.00;;;;;;5019067;28;19921;-68
2021/10/18 08:05:19;;;;;;;;;;;8.10;1.00;;;;;;5029845;28;19913;-71
2021/10/18 08:07:48;;;;;;;;;;;8.10;1.00;;;;;;5027885;28;19922;-69
2021/10/18 08:10:15;;;;;;;;;;;8.10;1.00;;;;;;5019489;28;20377;-70
2021/10/18 08:12:41;;;;;;;;;;;8.10;1.00;;;;;;5022732;28;19921;-68
2021/10/18 08:15:06;;;;;;;;;;;8.10;1.00;;;;;;5019790;28;20378;-69
2021/10/18 08:17:32;;;;;;;;;;;8.10;1.00;;;;;;5028596;28;19914;-69
2021/10/18 08:19:57;;;;;;;;;;;8.10;1.00;;;;;;5015487;28;19913;-69
2021/10/18 08:22:23;;;;;;;;;;;8.20;1.00;;;;;;5017860;28;20350;-69
2021/10/18 08:24:49;;;;;;;;;;;8.20;1.00;;;;;;5018831;28;20293;-68
2021/10/18 08:27:14;;;;;;;;;;;8.30;1.00;;;;;;5020457;28;19920;-69
2021/10/18 08:29:40;;;;;;;;;;;8.10;1.00;;;;;;5016572;28;19952;-69
2021/10/18 08:32:05;;;;;;;;;;;8.10;1.00;;;;;;5015667;28;19913;-68
2021/10/18 08:34:31;;;;;;;;;;;8.00;1.00;;;;;;5016937;28;20447;-69
2021/10/18 08:36:56;;;;;;;;;;;8.00;1.00;;;;;;5020910;28;20052;-68
2021/10/18 08:42:11;;;;;;;;;;;8.00;1.00;;;;;;5019136;28;19924;-68
2021/10/18 08:44:37;;;;;;;;;;;8.10;1.00;;;;;;5018829;28;19945;-69
2021/10/18 08:47:02;;;;;;;;;;;8.10;1.00;;;;;;5020364;28;20063;-70
2021/10/18 08:49:28;;;;;;;;;;;8.00;1.00;;;;;;5022491;28;19920;-70
2021/10/18 08:51:54;;;;;;;;;;;7.90;1.00;;;;;;5018223;28;19988;-71
2021/10/18 08:54:19;;;;;;;;;;;8.00;1.00;;;;;;5030867;28;20271;-68
2021/10/18 08:56:45;;;;;;;;;;;8.00;1.00;;;;;;5016612;28;19993;-69
2021/10/18 08:59:10;;;;;;;;;;;8.10;1.00;;;;;;5019345;28;20674;-70
2021/10/18 09:01:40;;;;;;;;;;;8.10;1.00;;;;;;5023474;28;19921;-70
2021/10/18 09:04:17;;;;;;;;;;;8.10;1.00;;;;;;5022258;28;19955;-71
2021/10/18 09:06:44;;;;;;;;;;;8.20;1.00;;;;;;5026655;28;19913;-69
2021/10/18 09:09:10;;;;;;;;;;;8.40;1.00;;;;;;5020185;28;19921;-68
2021/10/18 09:11:35;;;;;;;;;;;8.60;1.00;;;;;;5017325;28;19913;-69
2021/10/18 09:14:02;;;;;;;;;;;8.80;1.00;;;;;;5021137;28;19913;-70
2021/10/18 09:16:29;;;;;;;;;;;8.90;1.00;;;;;;5026869;28;19960;-69
2021/10/18 09:19:02;;;;;;;;;;;9.10;1.00;;;;;;5019427;28;19917;-69
2021/10/18 09:21:32;;;;;;;;;;;9.30;1.00;;;;;;5027647;28;19963;-69
2021/10/18 09:23:59;;;;;;;;;;;9.40;99.90;;;;;;5023795;28;19913;-69
2021/10/18 09:26:25;;;;;;;;;;;9.40;99.90;;;;;;5029002;28;19963;-71
2021/10/18 09:28:54;;;;;;;;;;;9.60;99.90;;;;;;5024061;28;19917;-70
2021/10/18 09:31:20;;;;;;;;;;;9.70;1.00;;;;;;5044612;28;19912;-69
2021/10/18 09:33:55;;;;;;;;;;;9.70;1.00;;;;;;5029396;28;19932;-70
2021/10/18 09:36:27;;;;;;;;;;;9.50;1.00;;;;;;5017232;28;19913;-69
2021/10/18 09:39:08;;;;;;;;;;;9.50;1.00;;;;;;5013575;28;20290;-69
2021/10/18 09:41:34;;;;;;;;;;;9.40;1.00;;;;;;5022476;28;20413;-69
2021/10/18 09:44:05;;;;;;;;;;;9.50;99.90;;;;;;5027906;28;19921;-70
2021/10/18 09:46:38;;;;;;;;;;;9.50;97.30;;;;;;5013670;28;19917;-69
2021/10/18 10:53:02;;;;;;;;;;;10.90;99.90;;;;;;5013731;28;20286;-69
2021/10/18 10:55:31;;;;;;;;;;;11.00;99.90;;;;;;5026310;28;19925;-69
2021/10/18 10:57:58;;;;;;;;;;;11.00;99.90;;;;;;5011712;28;19917;-70
2021/10/18 11:00:30;;;;;;;;;;;11.20;16.30;;;;;;5010404;28;19917;-69
2021/10/18 11:03:15;;;;;;;;;;;11.20;1.00;;;;;;5024174;28;19949;-70
2021/10/18 11:05:59;;;;;;;;;;;11.20;1.00;;;;;;5025253;28;19917;-69
2021/10/18 11:08:36;;;;;;;;;;;11.20;1.00;;;;;;5020543;28;20354;-70
2021/10/18 11:11:11;;;;;;;;;;;11.30;99.90;;;;;;5015871;28;19917;-69
2021/10/18 11:13:49;;;;;;;;;;;11.50;99.90;;;;;;5015466;28;19917;-68
2021/10/18 11:16:15;;;;;;;;;;;11.60;99.90;;;;;;5021654;28;19913;-68
2021/10/18 11:18:41;;;;;;;;;;;11.60;1.00;;;;;;5015898;28;20000;-69
2021/10/18 11:21:12;;;;;;;;;;;11.60;1.00;;;;;;5020563;28;20064;-69
2021/10/18 11:23:53;;;;;;;;;;;11.70;1.00;;;;;;5009757;28;19994;-70
2021/10/18 11:26:18;;;;;;;;;;;11.60;1.00;;;;;;5029330;28;19909;-69
2021/10/18 11:28:44;;;;;;;;;;;11.70;1.00;;;;;;5034082;28;19940;-68
2021/10/18 11:31:10;;;;;;;;;;;11.80;1.00;;;;;;5045645;28;19927;-69
2021/10/18 11:33:36;;;;;;;;;;;12.00;1.00;;;;;;5047829;28;20591;-69
2021/10/18 11:36:13;;;;;;;;;;;12.00;1.00;;;;;;5049194;28;19909;-69
2021/10/18 11:38:39;;;;;;;;;;;12.10;1.00;;;;;;5032850;28;20284;-69
2021/10/18 11:41:04;;;;;;;;;;;12.10;1.00;;;;;;5024784;28;19920;-69
2021/10/18 11:43:34;;;;;;;;;;;12.10;99.90;;;;;;5010850;28;19921;-70
2021/10/18 11:45:59;;;;;;;;;;;12.20;99.90;;;;;;5020098;28;19917;-69
2021/10/18 11:48:26;;;;;;;;;;;12.30;99.90;;;;;;5011335;28;19918;-70
2021/10/18 11:50:58;;;;;;;;;;;12.50;99.90;;;;;;5027552;28;20290;-68
2021/10/18 11:53:27;;;;;;;;;;;12.50;99.90;;;;;;5022996;28;19913;-70
2021/10/18 11:55:54;;;;;;;;;;;12.60;99.90;;;;;;5018027;28;20370;-70
2021/10/18 11:58:21;;;;;;;;;;;12.70;79.30;;;;;;5020017;28;19920;-70
2021/10/18 12:00:54;;;;;;;;;;;12.40;57.80;;;;;;5020730;28;19913;-68
2021/10/18 12:03:19;;;;;;;;;;;12.40;90.70;;;;;;5019677;28;19978;-69
2021/10/18 12:05:46;;;;;;;;;;;12.50;67.90;;;;;;5020019;28;19921;-70
2021/10/18 12:08:13;;;;;;;;;;;12.30;91.50;;;;;;5019367;28;19918;-69
2021/10/18 12:10:39;;;;;;;;;;;12.30;85.40;;;;;;5020819;28;19921;-70
2021/10/18 12:13:07;;;;;;;;;;;12.30;99.90;;;;;;5018441;28;19924;-70
2021/10/18 12:15:36;;;;;;;;;;;12.40;99.90;;;;;;5016459;28;20425;-68
2021/10/18 12:18:02;;;;;;;;;;;12.50;57.90;;;;;;5019559;28;19967;-70
2021/10/18 12:20:28;;;;;;;;;;;12.40;45.00;;;;;;5018241;28;19913;-70
2021/10/18 12:22:57;;;;;;;;;;;12.40;81.10;;;;;;5023197;28;19921;-70
2021/10/18 12:25:23;;;;;;;;;;;12.60;64.70;;;;;;5023184;28;19975;-70
2021/10/18 12:27:48;;;;;;;;;;;12.80;20.50;;;;;;5021237;28;19971;-70
2021/10/18 12:30:52;;;;;;;;;;;13.00;1.00;;;;;;5034898;28;19916;-71
2021/10/18 12:33:17;;;;;;;;;;;13.00;1.00;;;;;;4981040;28;19973;-71
2021/10/18 12:35:55;;;;;;;;;;;12.90;1.00;;;;;;4960007;28;20334;-72
2021/10/18 12:38:24;;;;;;;;;;;12.60;1.00;;;;;;4945354;28;19918;-71
2021/10/18 12:40:49;;;;;;;;;;;12.60;1.00;;;;;;4960281;28;19921;-72
2021/10/18 12:43:27;;;;;;;;;;;12.40;1.00;;;;;;4960214;28;19915;-72
2021/10/18 12:45:52;;;;;;;;;;;12.60;1.00;;;;;;4966684;28;20021;-69
2021/10/18 12:48:22;;;;;;;;;;;12.50;1.00;;;;;;4956941;28;20012;-71
2021/10/18 12:50:48;;;;;;;;;;;12.70;1.00;;;;;;4961424;28;20609;-71
2021/10/18 12:53:26;;;;;;;;;;;12.80;1.00;;;;;;4957113;28;19922;-70
2021/10/18 12:55:51;;;;;;;;;;;12.50;1.00;;;;;;4958865;28;19914;-70
2021/10/18 12:58:18;;;;;;;;;;;12.50;1.00;;;;;;4956096;28;19985;-71
2021/10/18 13:00:43;;;;;;;;;;;12.70;1.00;;;;;;4964852;28;20276;-70
2021/10/18 13:03:09;;;;;;;;;;;12.70;1.00;;;;;;4970203;28;19966;-69
2021/10/18 13:06:05;;;;;;;;;;;12.90;1.00;;;;;;5027943;28;20691;-73
2021/10/18 13:08:32;;;;;;;;;;;13.00;1.00;;;;;;5008720;28;19917;-71
2021/10/18 13:10:58;;;;;;;;;;;12.90;1.00;;;;;;5013170;28;20362;-71
2021/10/18 13:13:24;;;;;;;;;;;12.90;1.00;;;;;;5017932;28;19913;-71
2021/10/18 13:15:51;;;;;;;;;;;12.90;1.00;;;;;;5025546;28;19953;-70
2021/10/18 13:18:17;;;;;;;;;;;12.80;1.00;;;;;;5021222;28;19917;-71
2021/10/18 13:20:43;;;;;;;;;;;12.80;1.00;;;;;;5020521;28;19917;-70
2021/10/18 13:23:09;;;;;;;;;;;13.00;1.00;;;;;;5021893;28;20354;-70
2021/10/18 13:25:36;;;;;;;;;;;13.30;1.00;;;;;;5021815;28;20274;-72
2021/10/18 13:28:02;;;;;;;;;;;13.50;1.00;;;;;;5024273;28;20027;-70
2021/10/18 13:30:29;;;;;;;;;;;13.60;1.00;;;;;;5017050;28;19976;-70
2021/10/18 13:32:55;;;;;;;;;;;13.60;1.00;;;;;;5020715;28;19921;-70
2021/10/18 13:35:21;;;;;;;;;;;13.60;1.00;;;;;;5030371;28;19975;-69
2021/10/18 13:37:47;;;;;;;;;;;13.50;1.00;;;;;;5022670;28;19975;-72
2021/10/18 13:40:13;;;;;;;;;;;13.30;1.00;;;;;;5005167;28;19921;-72
2021/10/18 13:42:39;;;;;;;;;;;13.20;1.00;;;;;;5018147;28;20027;-71
2021/10/18 13:45:05;;;;;;;;;;;13.20;1.00;;;;;;5027730;28;19917;-72
2021/10/18 13:47:30;;;;;;;;;;;13.10;1.00;;;;;;5013469;28;19917;-71
2021/10/18 13:49:56;;;;;;;;;;;13.10;1.00;;;;;;5016237;28;19921;-72
2021/10/18 13:52:22;;;;;;;;;;;13.00;1.00;;;;;;5013194;28;19914;-72
2021/10/18 13:54:50;;;;;;;;;;;12.80;1.00;;;;;;5025582;28;19956;-72
2021/10/18 13:57:16;;;;;;;;;;;12.70;1.00;;;;;;5018086;28;19952;-69
2021/10/18 13:59:42;;;;;;;;;;;12.60;1.00;;;;;;5020575;28;19919;-71
2021/10/18 14:02:08;;;;;;;;;;;12.50;1.00;;;;;;5016736;28;19918;-71
2021/10/18 14:04:38;;;;;;;;;;;12.40;1.00;;;;;;5016901;28;20576;-70
2021/10/18 14:07:03;;;;;;;;;;;12.30;1.00;;;;;;5039084;28;19976;-71
2021/10/18 14:09:29;;;;;;;;;;;12.20;1.00;;;;;;5023851;28;20377;-69
2021/10/18 14:11:54;;;;;;;;;;;12.10;1.00;;;;;;5024401;28;20013;-71
2021/10/18 14:14:20;;;;;;;;;;;12.10;1.00;;;;;;5015202;28;20279;-71
2021/10/18 14:16:45;;;;;;;;;;;11.90;1.00;;;;;;5018252;28;20224;-71
2021/10/18 14:19:11;;;;;;;;;;;11.80;1.00;;;;;;5020942;28;19917;-72
2021/10/18 14:21:36;;;;;;;;;;;11.70;1.00;;;;;;5018486;28;19913;-72
2021/10/18 14:24:03;;;;;;;;;;;11.70;1.00;;;;;;5021276;28;19920;-72
2021/10/18 14:26:29;;;;;;;;;;;11.60;1.00;;;;;;5021946;28;19985;-72
2021/10/18 14:28:55;;;;;;;;;;;11.60;1.00;;;;;;5018816;28;19928;-72
2021/10/18 14:31:20;;;;;;;;;;;11.50;1.00;;;;;;5020013;28;20023;-71
2021/10/18 14:33:46;;;;;;;;;;;11.50;8.40;;;;;;5025828;28;20281;-71
2021/10/18 14:36:12;;;;;;;;;;;11.30;64.30;;;;;;5021566;28;19959;-72
2021/10/18 14:38:38;;;;;;;;;;;11.20;99.90;;;;;;5024297;28;19913;-71
2021/10/18 14:41:04;;;;;;;;;;;11.30;99.90;;;;;;5023829;28;19913;-70
2021/10/18 14:43:29;;;;;;;;;;;11.30;99.90;;;;;;5015267;28;19917;-72
2021/10/18 14:45:55;;;;;;;;;;;11.30;99.90;;;;;;5016426;28;19917;-72
2021/10/18 14:48:20;;;;;;;;;;;11.30;99.90;;;;;;5026021;28;20248;-71
2021/10/18 14:50:46;;;;;;;;;;;11.30;99.90;;;;;;5017966;28;19910;-72
2021/10/18 14:53:13;;;;;;;;;;;11.30;99.90;;;;;;5021593;28;19940;-71
2021/10/18 14:55:40;;;;;;;;;;;11.40;99.90;;;;;;5021195;28;20389;-72
2021/10/18 14:58:06;;;;;;;;;;;11.40;99.90;;;;;;5008973;28;20484;-72
2021/10/18 15:00:32;;;;;;;;;;;11.40;99.90;;;;;;5023212;28;20290;-72
2021/10/18 15:02:58;;;;;;;;;;;11.40;99.90;;;;;;5015515;28;19920;-70
2021/10/18 15:05:23;;;;;;;;;;;11.40;99.90;;;;;;5020040;28;19928;-73
2021/10/18 15:07:52;;;;;;;;;;;11.50;99.90;;;;;;5009759;28;19917;-72
2021/10/18 15:10:18;;;;;;;;;;;11.50;99.90;;;;;;5018588;28;19919;-72
2021/10/18 15:12:43;;;;;;;;;;;11.50;99.90;;;;;;5019105;28;20000;-72
2021/10/18 15:15:09;;;;;;;;;;;11.50;99.90;;;;;;5018268;28;19913;-71
2021/10/18 15:17:34;;;;;;;;;;;11.50;1.00;;;;;;5010607;28;20136;-72
2021/10/18 15:20:00;;;;;;;;;;;11.60;99.90;;;;;;5020385;28;20235;-72
2021/10/18 15:22:25;;;;;;;;;;;11.60;99.90;;;;;;5017321;28;19944;-72
2021/10/18 15:24:51;;;;;;;;;;;11.40;1.00;;;;;;5014247;28;19913;-69
2021/10/18 15:27:16;;;;;;;;;;;11.40;1.00;;;;;;5024861;28;19921;-71
2021/10/18 15:29:49;;;;;;;;;;;11.40;1.00;;;;;;5033787;28;20267;-72
2021/10/18 15:32:14;;;;;;;;;;;11.30;1.00;;;;;;5022833;28;19917;-72
2021/10/18 15:34:41;;;;;;;;;;;11.30;1.00;;;;;;5019021;28;19960;-72
2021/10/18 15:37:07;;;;;;;;;;;11.30;1.00;;;;;;5020438;28;19918;-73
2021/10/18 15:39:33;;;;;;;;;;;11.20;1.00;;;;;;5017670;28;20048;-72